createdAt,value
2023-05-05T00:01:33.516Z,49.92
2023-05-05T00:04:00.646Z,50.15
2023-05-05T00:06:28.587Z,50.38
2023-05-05T00:08:57.027Z,50.78
2023-05-05T00:11:24.069Z,50.34
2023-05-05T00:13:51.554Z,50.78
2023-05-05T00:16:18.818Z,52.22
2023-05-05T00:18:45.954Z,52.67
2023-05-05T00:21:13.394Z,53.31
2023-05-05T00:23:40.429Z,53.18
2023-05-05T00:26:07.547Z,53.55
2023-05-05T00:28:34.585Z,54.12
2023-05-05T00:31:01.865Z,54.25
2023-05-05T00:33:29.816Z,54.51
2023-05-05T00:35:56.866Z,53.89
2023-05-05T00:38:23.957Z,54.39
2023-05-05T00:40:51.384Z,55.12
2023-05-05T00:43:18.641Z,55.39
2023-05-05T00:45:47.772Z,55.72
2023-05-05T00:48:16.938Z,55.65
2023-05-05T00:50:45.211Z,56.41
2023-05-05T00:53:12.864Z,56.41
2023-05-05T00:55:40.406Z,56.69
2023-05-05T00:58:08.270Z,56.58
2023-05-05T01:00:35.326Z,57.20
2023-05-05T01:03:03.574Z,57.79
2023-05-05T01:05:38.208Z,57.95
2023-05-05T01:08:48.119Z,58.63
2023-05-05T01:11:58.384Z,58.32
2023-05-05T01:14:39.918Z,58.60
2023-05-05T01:17:22.717Z,58.68
2023-05-05T01:20:02.963Z,59.20
2023-05-05T01:22:46.220Z,59.64
2023-05-05T01:26:02.561Z,59.70
2023-05-05T01:28:50.755Z,60.07
2023-05-05T01:31:41.594Z,60.31
2023-05-05T01:34:09.781Z,59.99
2023-05-05T01:36:38.972Z,59.75
2023-05-05T01:39:08.490Z,60.92
2023-05-05T01:41:41.150Z,60.76
2023-05-05T01:44:09.845Z,61.02
2023-05-05T01:46:43.776Z,60.94
2023-05-05T01:49:11.695Z,60.70
2023-05-05T01:51:39.594Z,60.98
2023-05-05T01:54:10.610Z,61.28
2023-05-05T01:56:38.843Z,61.78
2023-05-05T01:59:07.047Z,61.79
2023-05-05T02:01:36.123Z,61.89
2023-05-05T02:04:03.406Z,61.83
2023-05-05T02:06:33.440Z,61.96
2023-05-05T02:09:01.778Z,61.68
2023-05-05T02:11:29.690Z,62.02
2023-05-05T02:13:57.504Z,62.14
2023-05-05T02:16:24.948Z,62.37
2023-05-05T02:18:52.325Z,62.73
2023-05-05T02:21:20.520Z,62.56
2023-05-05T02:23:52.136Z,63.37
2023-05-05T02:26:21.785Z,63.05
2023-05-05T02:29:03.378Z,63.41
2023-05-05T02:31:31.776Z,63.30
2023-05-05T02:34:00.125Z,63.26
2023-05-05T02:36:29.864Z,63.33
2023-05-05T02:39:01.269Z,63.19
2023-05-05T02:41:29.208Z,63.23
2023-05-05T02:43:57.259Z,63.24
2023-05-05T02:46:24.626Z,63.28
2023-05-05T02:48:52.070Z,63.53
2023-05-05T02:51:19.304Z,63.66
2023-05-05T02:53:46.539Z,63.89
2023-05-05T02:56:27.476Z,64.31
2023-05-05T02:59:09.083Z,64.18
2023-05-05T03:01:49.511Z,64.21
2023-05-05T03:04:27.987Z,65.11
2023-05-05T03:06:59.772Z,64.42
2023-05-05T03:09:33.863Z,64.79
2023-05-05T03:12:07.205Z,64.88
2023-05-05T03:14:41.548Z,65.12
2023-05-05T03:17:11.649Z,65.12
2023-05-05T03:19:41.802Z,65.08
2023-05-05T03:22:09.041Z,65.10
2023-05-05T03:24:36.156Z,64.95
2023-05-05T03:27:03.394Z,65.46
2023-05-05T03:29:30.972Z,65.73
2023-05-05T03:31:58.402Z,65.53
2023-05-05T03:34:25.496Z,66.15
2023-05-05T03:36:52.554Z,65.97
2023-05-05T03:39:19.604Z,66.25
2023-05-05T03:41:46.673Z,66.24
2023-05-05T03:44:13.697Z,66.11
2023-05-05T03:46:40.752Z,66.23
2023-05-05T03:49:09.787Z,66.26
2023-05-05T03:51:37.257Z,66.24
2023-05-05T03:54:04.372Z,66.69
2023-05-05T03:56:32.008Z,66.94
2023-05-05T03:58:59.128Z,67.15
2023-05-05T04:01:26.291Z,67.03
2023-05-05T04:03:53.821Z,67.17
2023-05-05T04:06:21.120Z,67.16
2023-05-05T04:08:48.228Z,67.45
2023-05-05T04:11:16.089Z,67.10
2023-05-05T04:13:43.381Z,67.93
2023-05-05T04:16:10.518Z,68.04
2023-05-05T04:18:37.589Z,67.72
2023-05-05T04:21:04.701Z,68.40
2023-05-05T04:23:31.817Z,68.09
2023-05-05T04:25:58.898Z,68.09
2023-05-05T04:28:26.210Z,68.45
2023-05-05T04:30:53.512Z,68.00
2023-05-05T04:33:20.555Z,67.61
2023-05-05T04:35:47.676Z,68.03
2023-05-05T04:38:14.831Z,68.33
2023-05-05T04:40:42.799Z,67.92
2023-05-05T04:43:10.146Z,68.18
2023-05-05T04:45:37.250Z,68.07
2023-05-05T04:48:05.277Z,68.12
2023-05-05T04:50:32.649Z,68.00
2023-05-05T04:52:59.724Z,67.42
2023-05-05T04:55:27.278Z,67.28
2023-05-05T04:57:54.354Z,66.79
2023-05-05T05:00:21.711Z,66.32
2023-05-05T05:02:48.805Z,66.96
2023-05-05T05:05:15.990Z,66.76
2023-05-05T05:07:43.045Z,66.73
2023-05-05T05:10:10.866Z,65.96
2023-05-05T05:12:38.138Z,65.57
2023-05-05T05:15:05.582Z,65.26
2023-05-05T05:17:32.740Z,65.13
2023-05-05T05:20:04.566Z,65.12
2023-05-05T05:22:31.702Z,64.82
2023-05-05T05:24:59.309Z,64.70
2023-05-05T05:27:26.775Z,64.32
2023-05-05T05:29:53.823Z,64.11
2023-05-05T05:32:20.982Z,63.00
2023-05-05T05:34:48.049Z,62.66
2023-05-05T05:37:15.187Z,63.18
2023-05-05T05:39:43.494Z,62.60
2023-05-05T05:42:10.952Z,60.37
2023-05-05T05:44:38.403Z,58.81
2023-05-05T05:47:05.575Z,59.64
2023-05-05T05:49:32.972Z,57.96
2023-05-05T05:52:00.171Z,57.51
2023-05-05T05:54:27.445Z,54.76
2023-05-05T05:56:54.575Z,55.10
2023-05-05T05:59:22.131Z,54.42
2023-05-05T06:01:49.235Z,52.38
2023-05-05T06:04:16.297Z,53.26
2023-05-05T06:06:43.837Z,51.27
2023-05-05T06:09:10.904Z,50.92
2023-05-05T06:11:37.935Z,51.04
2023-05-05T06:14:05.340Z,50.41
2023-05-05T06:16:32.730Z,50.31
2023-05-05T06:19:00.305Z,50.16
2023-05-05T06:21:27.855Z,49.22
2023-05-05T06:23:54.935Z,49.42
2023-05-05T06:26:22.069Z,49.92
2023-05-05T06:28:49.696Z,49.71
2023-05-05T06:31:17.710Z,48.48
2023-05-05T06:33:44.929Z,48.75
2023-05-05T06:36:12.174Z,48.54
2023-05-05T06:38:39.292Z,47.91
2023-05-05T06:41:06.625Z,47.79
2023-05-05T06:43:33.725Z,47.21
2023-05-05T06:46:00.836Z,46.58
2023-05-05T06:48:27.925Z,47.49
2023-05-05T06:50:56.374Z,46.22
2023-05-05T06:53:23.685Z,45.84
2023-05-05T06:55:50.961Z,46.01
2023-05-05T06:58:18.106Z,45.11
2023-05-05T07:00:45.726Z,44.17
2023-05-05T07:03:13.191Z,44.61
2023-05-05T07:05:40.346Z,45.52
2023-05-05T07:08:08.981Z,44.22
2023-05-05T07:10:37.014Z,42.83
2023-05-05T07:13:04.117Z,42.55
2023-05-05T07:15:31.250Z,41.72
2023-05-05T07:17:58.579Z,41.94
2023-05-05T07:20:26.166Z,41.81
2023-05-05T07:22:53.291Z,41.11
2023-05-05T07:25:21.056Z,41.87
2023-05-05T07:27:48.113Z,39.37
2023-05-05T07:30:18.027Z,41.22
2023-05-05T07:32:46.378Z,41.04
2023-05-05T07:35:14.057Z,40.69
2023-05-05T07:37:41.122Z,38.90
2023-05-05T07:40:09.977Z,39.69
2023-05-05T07:42:37.468Z,40.03
2023-05-05T07:45:05.322Z,39.39
2023-05-05T07:47:32.644Z,38.87
2023-05-05T07:49:59.780Z,39.08
2023-05-05T07:52:43.386Z,39.33
2023-05-05T07:55:13.806Z,39.03
2023-05-05T07:57:41.107Z,38.19
2023-05-05T08:00:09.655Z,37.44
2023-05-05T08:02:37.436Z,36.31
2023-05-05T08:05:04.807Z,34.05
2023-05-05T08:07:32.014Z,34.71
2023-05-05T08:09:59.159Z,34.72
2023-05-05T08:12:26.304Z,34.18
2023-05-05T08:14:53.424Z,33.87
2023-05-05T08:17:20.551Z,34.32
2023-05-05T08:19:47.648Z,33.77
2023-05-05T08:22:14.995Z,33.06
2023-05-05T08:24:42.085Z,32.84
2023-05-05T08:27:09.124Z,32.18
2023-05-05T08:29:36.243Z,32.25
2023-05-05T08:32:03.332Z,30.92
2023-05-05T08:34:30.833Z,31.12
2023-05-05T08:36:57.905Z,31.04
2023-05-05T08:39:25.444Z,30.21
2023-05-05T08:41:52.501Z,30.13
2023-05-05T08:44:19.637Z,31.52
2023-05-05T08:46:46.901Z,30.83
2023-05-05T08:49:16.257Z,30.54
2023-05-05T08:51:44.338Z,29.51
2023-05-05T08:54:15.570Z,29.42
2023-05-05T08:56:42.682Z,27.95
2023-05-05T08:59:11.127Z,28.86
2023-05-05T09:01:38.463Z,28.49
2023-05-05T09:04:07.750Z,30.99
2023-05-05T09:06:35.579Z,29.02
2023-05-05T09:09:03.006Z,29.28
2023-05-05T09:11:30.048Z,28.31
2023-05-05T09:13:57.528Z,28.97
2023-05-05T09:16:24.833Z,29.16
2023-05-05T09:19:00.917Z,28.18
2023-05-05T09:21:29.218Z,27.62
2023-05-05T09:24:10.785Z,26.35
2023-05-05T09:26:40.815Z,28.29
2023-05-05T09:29:08.058Z,27.83
2023-05-05T09:31:36.545Z,28.34
2023-05-05T09:34:14.994Z,26.80
2023-05-05T09:36:49.014Z,29.77
2023-05-05T09:39:20.573Z,28.70
2023-05-05T09:41:48.039Z,29.32
2023-05-05T09:44:16.222Z,29.59
2023-05-05T09:46:51.496Z,30.22
2023-05-05T09:49:20.289Z,29.84
2023-05-05T09:51:47.754Z,29.84
2023-05-05T09:54:28.804Z,29.03
2023-05-05T09:56:58.990Z,29.12
2023-05-05T09:59:26.183Z,29.38
2023-05-05T10:01:53.619Z,28.88
2023-05-05T10:04:28.249Z,29.58
2023-05-05T10:06:57.648Z,30.28
2023-05-05T10:09:25.927Z,29.25
2023-05-05T10:11:53.865Z,29.46
2023-05-05T10:14:21.531Z,29.54
2023-05-05T10:16:51.013Z,28.09
2023-05-05T10:19:19.830Z,28.72
2023-05-05T10:21:50.416Z,29.15
2023-05-05T10:24:36.988Z,28.89
2023-05-05T10:27:12.611Z,28.88
2023-05-05T10:30:02.744Z,29.25
2023-05-05T10:32:57.467Z,29.37
2023-05-05T10:35:33.011Z,29.71
2023-05-05T10:38:00.280Z,30.76
2023-05-05T10:40:28.018Z,30.68
2023-05-05T10:42:55.601Z,31.16
2023-05-05T10:45:23.044Z,30.14
2023-05-05T10:47:51.315Z,31.32
2023-05-05T10:50:25.656Z,30.44
2023-05-05T10:53:18.414Z,30.85
2023-05-05T10:56:14.244Z,30.29
2023-05-05T10:58:58.457Z,29.81
2023-05-05T11:01:34.576Z,28.71
2023-05-05T11:04:19.825Z,29.20
2023-05-05T11:07:10.473Z,30.37
2023-05-05T11:10:03.734Z,29.84
2023-05-05T11:12:32.035Z,30.82
2023-05-05T11:15:27.517Z,30.34
2023-05-05T11:17:58.826Z,31.07
2023-05-05T11:20:34.931Z,29.33
2023-05-05T11:23:04.852Z,29.75
2023-05-05T11:25:35.674Z,28.61
2023-05-05T11:28:15.914Z,29.00
2023-05-05T11:30:55.166Z,29.82
2023-05-05T11:33:40.551Z,30.05
2023-05-05T11:36:12.453Z,30.59
2023-05-05T11:38:39.527Z,29.59
2023-05-05T11:41:18.104Z,28.10
2023-05-05T11:43:45.242Z,29.43
2023-05-05T11:46:13.797Z,28.96
2023-05-05T11:48:46.008Z,28.99
2023-05-05T11:51:14.499Z,29.66
2023-05-05T11:53:48.898Z,29.86
2023-05-05T11:56:21.716Z,30.19
2023-05-05T11:58:49.864Z,30.63
2023-05-05T12:01:17.146Z,29.74
2023-05-05T12:03:45.605Z,30.12
2023-05-05T12:06:13.369Z,28.45
2023-05-05T12:08:41.333Z,28.94
2023-05-05T12:11:10.055Z,27.94
2023-05-05T12:13:37.415Z,27.00
2023-05-05T12:16:11.114Z,26.60
2023-05-05T12:18:39.431Z,27.25
2023-05-05T12:21:18.278Z,27.26
2023-05-05T12:23:45.833Z,27.44
2023-05-05T12:26:26.715Z,27.39
2023-05-05T12:28:54.156Z,27.00
2023-05-05T12:31:21.322Z,27.11
2023-05-05T12:33:48.692Z,27.22
2023-05-05T12:36:16.422Z,26.82
2023-05-05T12:38:43.500Z,27.04
2023-05-05T12:41:11.445Z,27.10
2023-05-05T12:43:38.723Z,27.49
2023-05-05T12:46:11.060Z,27.41
2023-05-05T12:48:39.865Z,27.37
2023-05-05T12:51:17.406Z,26.67
2023-05-05T12:53:45.929Z,27.44
2023-05-05T12:56:31.238Z,26.90
2023-05-05T12:58:58.406Z,28.20
2023-05-05T13:01:25.467Z,27.44
2023-05-05T13:04:06.556Z,27.64
2023-05-05T13:06:33.864Z,28.01
2023-05-05T13:09:00.925Z,28.81
2023-05-05T13:11:28.390Z,28.25
2023-05-05T13:13:55.890Z,28.11
2023-05-05T13:16:23.056Z,28.97
2023-05-05T13:18:51.388Z,28.95
2023-05-05T13:21:18.443Z,29.22
2023-05-05T13:23:45.754Z,28.73
2023-05-05T13:26:13.539Z,28.78
2023-05-05T13:28:41.100Z,29.13
2023-05-05T13:31:08.275Z,29.13
2023-05-05T13:33:36.074Z,29.33
2023-05-05T13:36:03.505Z,29.01
2023-05-05T13:38:32.971Z,29.34
2023-05-05T13:41:00.225Z,29.78
2023-05-05T13:43:27.318Z,29.64
2023-05-05T13:45:55.979Z,29.50
2023-05-05T13:48:27.569Z,29.12
2023-05-05T13:50:54.679Z,29.99
2023-05-05T13:53:21.844Z,31.11
2023-05-05T13:55:48.982Z,31.10
2023-05-05T13:58:16.080Z,31.42
2023-05-05T14:00:43.188Z,31.54
2023-05-05T14:03:10.243Z,31.61
2023-05-05T14:05:42.646Z,31.52
2023-05-05T14:08:09.928Z,31.95
2023-05-05T14:10:37.055Z,32.05
2023-05-05T14:13:04.372Z,32.00
2023-05-05T14:15:31.581Z,32.63
2023-05-05T14:17:59.642Z,32.65
2023-05-05T14:20:27.078Z,32.20
2023-05-05T14:22:54.530Z,32.00
2023-05-05T14:25:21.748Z,31.81
2023-05-05T14:27:48.918Z,32.30
2023-05-05T14:30:16.203Z,32.86
2023-05-05T14:32:43.271Z,33.03
2023-05-05T14:35:10.495Z,32.37
2023-05-05T14:37:37.562Z,32.52
2023-05-05T14:40:05.833Z,33.41
2023-05-05T14:42:33.163Z,33.77
2023-05-05T14:45:00.208Z,33.67
2023-05-05T14:47:27.288Z,33.45
2023-05-05T14:49:54.362Z,33.92
2023-05-05T14:52:21.398Z,34.73
2023-05-05T14:54:48.455Z,35.00
2023-05-05T14:57:15.531Z,35.44
2023-05-05T14:59:42.752Z,35.74
2023-05-05T15:02:09.872Z,35.71
2023-05-05T15:04:38.042Z,36.49
2023-05-05T15:07:05.135Z,36.06
2023-05-05T15:09:32.165Z,36.53
2023-05-05T15:11:59.266Z,36.38
2023-05-05T15:14:26.495Z,36.45
2023-05-05T15:16:53.582Z,36.71
2023-05-05T15:19:20.631Z,36.89
2023-05-05T15:21:53.540Z,37.34
2023-05-05T15:24:21.717Z,37.19
2023-05-05T15:26:48.779Z,37.09
2023-05-05T15:29:15.829Z,37.33
2023-05-05T15:31:43.013Z,37.44
2023-05-05T15:34:10.135Z,37.21
2023-05-05T15:36:37.216Z,37.32
2023-05-05T15:39:04.342Z,37.66
2023-05-05T15:41:33.867Z,37.66
2023-05-05T15:44:03.034Z,37.54
2023-05-05T15:46:32.796Z,37.76
2023-05-05T15:48:59.998Z,37.89
2023-05-05T15:51:27.363Z,37.69
2023-05-05T15:53:54.485Z,38.26
2023-05-05T15:56:21.636Z,38.38
2023-05-05T15:58:48.707Z,38.39
2023-05-05T16:01:16.423Z,38.39
2023-05-05T16:03:43.623Z,38.31
2023-05-05T16:06:13.632Z,38.34
2023-05-05T16:08:40.837Z,38.19
2023-05-05T16:11:07.968Z,38.25
2023-05-05T16:13:35.139Z,38.04
2023-05-05T16:16:02.248Z,38.29
2023-05-05T16:18:29.331Z,38.58
2023-05-05T16:20:56.445Z,38.73
2023-05-05T16:23:24.474Z,38.62
2023-05-05T16:25:51.726Z,38.46
2023-05-05T16:28:18.928Z,38.64
2023-05-05T16:30:46.199Z,38.55
2023-05-05T16:33:13.485Z,38.63
2023-05-05T16:35:40.636Z,38.91
2023-05-05T16:38:07.908Z,39.63
2023-05-05T16:40:37.084Z,41.50
2023-05-05T16:43:04.159Z,46.35
2023-05-05T16:45:31.418Z,48.76
2023-05-05T16:47:58.457Z,50.37
2023-05-05T16:50:25.645Z,51.64
2023-05-05T16:52:53.081Z,52.06
2023-05-05T16:55:20.519Z,55.92
2023-05-05T16:57:48.172Z,55.79
2023-05-05T17:00:15.667Z,55.59
2023-05-05T17:02:42.865Z,56.59
2023-05-05T17:05:10.161Z,55.47
2023-05-05T17:07:37.743Z,55.92
2023-05-05T17:10:05.426Z,55.94
2023-05-05T17:12:32.589Z,54.35
2023-05-05T17:15:00.119Z,53.16
2023-05-05T17:17:27.775Z,53.35
2023-05-05T17:19:54.849Z,53.92
2023-05-05T17:22:22.024Z,53.41
2023-05-05T17:24:49.191Z,52.81
2023-05-05T17:27:16.533Z,53.11
2023-05-05T17:29:43.910Z,52.57
2023-05-05T17:32:11.121Z,52.88
2023-05-05T17:34:38.212Z,52.16
2023-05-05T17:37:05.424Z,52.14
2023-05-05T17:39:32.963Z,52.51
2023-05-05T17:42:00.038Z,51.38
2023-05-05T17:44:27.120Z,51.57
2023-05-05T17:46:54.170Z,52.16
2023-05-05T17:49:21.588Z,52.97
2023-05-05T17:51:48.742Z,52.84
2023-05-05T17:54:16.140Z,52.62
2023-05-05T17:56:43.272Z,52.28
2023-05-05T17:59:10.341Z,51.85
2023-05-05T18:01:37.434Z,51.80
2023-05-05T18:04:04.542Z,52.25
2023-05-05T18:06:31.774Z,53.12
2023-05-05T18:08:58.842Z,53.56
2023-05-05T18:11:28.725Z,54.19
2023-05-05T18:13:56.183Z,54.46
2023-05-05T18:16:23.294Z,54.69
2023-05-05T18:18:50.407Z,55.31
2023-05-05T18:21:17.541Z,55.19
2023-05-05T18:23:44.633Z,55.09
2023-05-05T18:26:11.764Z,55.59
2023-05-05T18:28:39.103Z,55.69
2023-05-05T18:31:06.529Z,54.50
2023-05-05T18:33:33.696Z,55.20
2023-05-05T18:36:02.359Z,54.29
2023-05-05T18:38:29.707Z,54.26
2023-05-05T18:40:56.895Z,54.46
2023-05-05T18:43:23.998Z,54.07
2023-05-05T18:45:51.162Z,54.74
2023-05-05T18:48:18.216Z,55.14
2023-05-05T18:50:46.889Z,53.47
2023-05-05T18:53:14.911Z,54.48
2023-05-05T18:55:43.354Z,54.22
2023-05-05T18:58:10.472Z,54.21
2023-05-05T19:00:38.189Z,54.27
2023-05-05T19:03:05.574Z,54.22
2023-05-05T19:05:32.673Z,53.69
2023-05-05T19:07:59.727Z,53.81
2023-05-05T19:10:27.065Z,52.95
2023-05-05T19:12:55.991Z,52.84
2023-05-05T19:15:23.358Z,52.72
2023-05-05T19:17:50.499Z,53.20
2023-05-05T19:20:17.599Z,53.00
2023-05-05T19:22:44.673Z,53.22
2023-05-05T19:25:14.154Z,53.44
2023-05-05T19:27:41.434Z,53.40
2023-05-05T19:30:09.330Z,53.68
2023-05-05T19:32:36.482Z,53.74
2023-05-05T19:35:03.798Z,54.09
2023-05-05T19:37:31.246Z,54.04
2023-05-05T19:39:58.473Z,54.74
2023-05-05T19:42:26.111Z,54.95
2023-05-05T19:44:53.155Z,55.07
2023-05-05T19:47:20.700Z,55.31
2023-05-05T19:49:47.772Z,55.69
2023-05-05T19:52:14.845Z,56.13
2023-05-05T19:54:43.363Z,56.49
2023-05-05T19:57:10.497Z,56.55
2023-05-05T19:59:37.548Z,56.72
2023-05-05T20:02:04.809Z,57.10
2023-05-05T20:04:31.904Z,57.08
2023-05-05T20:06:59.556Z,56.82
2023-05-05T20:09:27.464Z,56.44
2023-05-05T20:11:55.801Z,56.21
2023-05-05T20:14:22.917Z,56.52
2023-05-05T20:16:50.151Z,56.30
2023-05-05T20:19:18.292Z,56.23
2023-05-05T20:21:45.955Z,55.82
2023-05-05T20:24:13.159Z,55.85
2023-05-05T20:26:40.527Z,55.43
2023-05-05T20:29:07.600Z,54.94
2023-05-05T20:31:35.007Z,55.02
2023-05-05T20:34:02.235Z,55.05
2023-05-05T20:36:29.298Z,55.22
2023-05-05T20:38:56.381Z,55.37
2023-05-05T20:41:23.540Z,55.24
2023-05-05T20:43:50.707Z,55.05
2023-05-05T20:46:17.918Z,55.42
2023-05-05T20:48:45.107Z,55.68
2023-05-05T20:51:12.217Z,55.80
2023-05-05T20:53:39.411Z,55.08
2023-05-05T20:56:08.675Z,55.66
2023-05-05T20:58:36.272Z,57.73
2023-05-05T21:01:03.466Z,57.81
2023-05-05T21:03:30.647Z,58.80
2023-05-05T21:06:00.246Z,59.96
2023-05-05T21:08:27.405Z,61.13
2023-05-05T21:10:54.498Z,61.54
2023-05-05T21:13:21.701Z,61.33
2023-05-05T21:15:50.386Z,62.23
2023-05-05T21:18:17.520Z,62.83
2023-05-05T21:20:44.671Z,62.56
2023-05-05T21:23:12.146Z,63.58
2023-05-05T21:25:39.435Z,63.91
2023-05-05T21:28:06.659Z,64.03
2023-05-05T21:30:33.820Z,65.24
2023-05-05T21:33:00.906Z,65.94
2023-05-05T21:35:28.144Z,65.90
2023-05-05T21:37:55.671Z,66.83
2023-05-05T21:40:22.787Z,66.69
2023-05-05T21:42:49.935Z,66.71
2023-05-05T21:45:17.052Z,67.10
2023-05-05T21:47:44.227Z,68.44
2023-05-05T21:50:12.375Z,69.10
2023-05-05T21:52:39.747Z,71.10
2023-05-05T21:55:07.250Z,71.41
2023-05-05T21:57:34.472Z,72.28
2023-05-05T22:00:01.677Z,72.35
2023-05-05T22:02:30.614Z,73.12
2023-05-05T22:04:57.777Z,74.45
2023-05-05T22:07:26.065Z,75.36
2023-05-05T22:09:53.191Z,75.32
2023-05-05T22:12:20.338Z,75.94
2023-05-05T22:14:47.592Z,76.26
2023-05-05T22:17:14.746Z,77.87
2023-05-05T22:19:41.835Z,77.67
2023-05-05T22:22:09.041Z,78.97
2023-05-05T22:24:36.213Z,78.99
2023-05-05T22:27:03.344Z,79.54
2023-05-05T22:29:30.544Z,79.86
2023-05-05T22:31:57.667Z,80.58
2023-05-05T22:34:25.826Z,80.18
2023-05-05T22:36:52.954Z,81.03
2023-05-05T22:39:20.350Z,81.14
2023-05-05T22:41:47.479Z,81.64
2023-05-05T22:44:15.282Z,81.91
2023-05-05T22:46:42.444Z,82.40
2023-05-05T22:49:09.632Z,83.15
2023-05-05T22:51:36.827Z,83.78
2023-05-05T22:54:04.081Z,84.09
2023-05-05T22:56:31.568Z,85.09
2023-05-05T22:58:58.698Z,84.81
2023-05-05T23:01:26.350Z,84.76
2023-05-05T23:03:53.665Z,85.26
2023-05-05T23:06:20.783Z,85.64
2023-05-05T23:08:49.026Z,85.38
2023-05-05T23:11:16.314Z,85.37
2023-05-05T23:13:43.434Z,84.69
2023-05-05T23:16:10.637Z,85.15
2023-05-05T23:18:38.779Z,85.38
2023-05-05T23:21:05.941Z,85.95
2023-05-05T23:23:33.021Z,85.25
2023-05-05T23:26:00.158Z,84.68
2023-05-05T23:28:27.319Z,84.73
2023-05-05T23:30:54.456Z,85.65
2023-05-05T23:33:21.581Z,85.63
2023-05-05T23:35:48.805Z,86.38
2023-05-05T23:38:16.200Z,84.75
2023-05-05T23:40:43.337Z,85.58
2023-05-05T23:43:12.106Z,85.18
2023-05-05T23:45:39.291Z,85.12
2023-05-05T23:48:06.487Z,84.74
2023-05-05T23:50:33.688Z,83.98
2023-05-05T23:53:00.829Z,84.71
2023-05-05T23:55:27.987Z,85.57
2023-05-05T23:57:55.437Z,86.06
